createdAt,value
2022-08-22T00:00:46.349Z,997.73
2022-08-22T00:01:46.344Z,997.73
2022-08-22T00:02:42.057Z,996.39
2022-08-22T00:02:45.443Z,996.58
2022-08-22T00:02:56.262Z,996.91
2022-08-22T00:02:58.483Z,997.24
2022-08-22T00:03:04.652Z,996.84
2022-08-22T00:03:07.041Z,997.71
2022-08-22T00:03:07.585Z,997.80
2022-08-22T00:03:15.659Z,997.74
2022-08-22T00:03:15.720Z,997.77
2022-08-22T00:03:15.839Z,997.67
2022-08-22T00:03:48.326Z,997.63
2022-08-22T00:04:46.375Z,997.62
2022-08-22T00:05:46.304Z,997.62
2022-08-22T00:06:46.297Z,997.59
2022-08-22T00:07:46.290Z,997.62
2022-08-22T00:08:46.311Z,997.61
2022-08-22T00:09:46.269Z,997.62
2022-08-22T00:10:46.263Z,997.63
2022-08-22T00:11:46.265Z,997.54
2022-08-22T00:12:46.243Z,997.63
2022-08-22T00:13:46.257Z,997.64
2022-08-22T00:14:46.229Z,997.63
2022-08-22T00:15:46.219Z,997.63
2022-08-22T00:16:46.212Z,997.62
2022-08-22T00:17:46.195Z,997.63
2022-08-22T00:18:46.235Z,997.71
2022-08-22T00:19:46.179Z,997.64
2022-08-22T00:20:46.179Z,997.60
2022-08-22T00:21:46.165Z,997.65
2022-08-22T00:22:46.161Z,997.63
2022-08-22T00:23:46.176Z,997.62
2022-08-22T00:24:46.140Z,997.63
2022-08-22T00:25:46.135Z,997.59
2022-08-22T00:26:46.120Z,997.56
2022-08-22T00:27:46.119Z,997.56
2022-08-22T00:28:46.136Z,997.60
2022-08-22T00:29:46.095Z,997.58
2022-08-22T00:30:46.083Z,997.53
2022-08-22T00:31:46.077Z,997.55
2022-08-22T00:32:46.095Z,997.55
2022-08-22T00:33:46.108Z,997.59
2022-08-22T00:34:46.052Z,997.66
2022-08-22T00:35:46.045Z,997.68
2022-08-22T00:36:47.733Z,997.61
2022-08-22T00:37:46.036Z,997.62
2022-08-22T00:38:46.049Z,997.66
2022-08-22T00:39:46.081Z,997.69
2022-08-22T00:40:46.000Z,997.67
2022-08-22T00:41:45.990Z,997.65
2022-08-22T00:42:45.988Z,997.69
2022-08-22T00:43:46.028Z,997.60
2022-08-22T00:44:45.996Z,997.72
2022-08-22T00:45:45.959Z,997.73
2022-08-22T00:46:45.948Z,997.77
2022-08-22T00:47:45.938Z,997.67
2022-08-22T00:48:45.934Z,997.66
2022-08-22T00:49:45.957Z,997.72
2022-08-22T00:50:45.914Z,997.69
2022-08-22T00:51:45.952Z,997.76
2022-08-22T00:52:45.895Z,997.67
2022-08-22T00:53:45.897Z,997.70
2022-08-22T00:54:45.913Z,997.66
2022-08-22T00:55:45.872Z,997.66
2022-08-22T00:56:46.006Z,997.65
2022-08-22T00:57:45.856Z,997.70
2022-08-22T00:58:45.877Z,997.67
2022-08-22T00:59:45.840Z,997.68
2022-08-22T01:00:45.833Z,997.65
2022-08-22T01:01:45.824Z,997.71
2022-08-22T01:02:50.437Z,997.67
2022-08-22T01:03:47.846Z,997.74
2022-08-22T01:04:45.813Z,997.73
2022-08-22T01:05:45.794Z,997.73
2022-08-22T01:06:45.780Z,997.70
2022-08-22T01:07:45.792Z,997.74
2022-08-22T01:08:45.793Z,997.74
2022-08-22T01:09:45.766Z,997.77
2022-08-22T01:10:45.749Z,997.80
2022-08-22T01:11:45.735Z,997.78
2022-08-22T01:12:45.732Z,997.73
2022-08-22T01:13:45.757Z,997.78
2022-08-22T01:14:45.718Z,997.77
2022-08-22T01:15:45.705Z,997.81
2022-08-22T01:16:45.694Z,997.80
2022-08-22T01:17:45.764Z,997.82
2022-08-22T01:18:45.723Z,997.82
2022-08-22T01:19:45.680Z,997.79
2022-08-22T01:20:45.669Z,997.72
2022-08-22T01:21:45.653Z,997.81
2022-08-22T01:22:45.655Z,997.83
2022-08-22T01:23:45.687Z,997.83
2022-08-22T01:24:45.625Z,997.78
2022-08-22T01:25:45.640Z,997.77
2022-08-22T01:26:45.622Z,997.82
2022-08-22T01:27:45.609Z,997.82
2022-08-22T01:28:45.633Z,997.84
2022-08-22T01:29:45.586Z,997.84
2022-08-22T01:30:45.583Z,997.81
2022-08-22T01:31:45.575Z,997.83
2022-08-22T01:32:45.561Z,997.83
2022-08-22T01:33:45.588Z,997.86
2022-08-22T01:34:45.543Z,997.81
2022-08-22T01:35:45.542Z,997.87
2022-08-22T01:36:45.531Z,997.82
2022-08-22T01:37:45.521Z,997.86
2022-08-22T01:38:45.543Z,997.88
2022-08-22T01:39:45.538Z,997.84
2022-08-22T01:40:53.559Z,997.87
2022-08-22T01:41:46.491Z,997.80
2022-08-22T01:42:45.480Z,997.83
2022-08-22T01:44:00.401Z,997.89
2022-08-22T01:44:46.498Z,997.90
2022-08-22T01:45:45.471Z,997.95
2022-08-22T01:46:45.452Z,997.90
2022-08-22T01:47:45.440Z,997.91
2022-08-22T01:48:45.429Z,997.86
2022-08-22T01:49:45.452Z,997.86
2022-08-22T01:50:45.418Z,997.87
2022-08-22T01:51:45.404Z,997.87
2022-08-22T01:52:45.397Z,997.87
2022-08-22T01:53:45.389Z,997.97
2022-08-22T01:54:45.400Z,997.86
2022-08-22T01:55:45.373Z,997.86
2022-08-22T01:56:45.365Z,997.87
2022-08-22T01:57:45.358Z,997.86
2022-08-22T01:58:45.351Z,997.86
2022-08-22T01:59:45.363Z,997.85
2022-08-22T02:00:45.355Z,997.89
2022-08-22T02:01:45.319Z,997.86
2022-08-22T02:02:45.310Z,997.87
2022-08-22T02:03:45.304Z,997.88
2022-08-22T02:04:45.331Z,997.85
2022-08-22T02:05:45.306Z,997.79
2022-08-22T02:06:45.276Z,997.84
2022-08-22T02:07:45.267Z,997.78
2022-08-22T02:08:45.264Z,997.83
2022-08-22T02:09:45.281Z,997.83
2022-08-22T02:10:45.244Z,997.82
2022-08-22T02:11:45.238Z,997.82
2022-08-22T02:12:45.222Z,997.87
2022-08-22T02:13:45.254Z,997.88
2022-08-22T02:14:45.209Z,997.84
2022-08-22T02:15:45.196Z,997.89
2022-08-22T02:16:45.206Z,997.84
2022-08-22T02:17:45.193Z,997.82
2022-08-22T02:18:45.172Z,997.74
2022-08-22T02:19:45.207Z,997.78
2022-08-22T02:20:45.158Z,997.73
2022-08-22T02:21:45.152Z,997.78
2022-08-22T02:22:45.133Z,997.77
2022-08-22T02:23:45.141Z,997.76
2022-08-22T02:24:45.153Z,997.76
2022-08-22T02:25:45.113Z,997.82
2022-08-22T02:26:45.103Z,997.76
2022-08-22T02:27:45.104Z,997.75
2022-08-22T02:28:57.479Z,997.76
2022-08-22T02:29:46.105Z,997.82
2022-08-22T02:30:45.076Z,997.76
2022-08-22T02:31:45.070Z,997.84
2022-08-22T02:32:45.052Z,997.79
2022-08-22T02:33:45.047Z,997.85
2022-08-22T02:34:45.069Z,997.79
2022-08-22T02:35:45.030Z,997.83
2022-08-22T02:36:45.025Z,997.77
2022-08-22T02:37:45.014Z,997.83
2022-08-22T02:38:45.023Z,997.79
2022-08-22T02:39:45.062Z,997.75
2022-08-22T02:40:44.981Z,997.78
2022-08-22T02:41:44.977Z,997.76
2022-08-22T02:42:44.971Z,997.78
2022-08-22T02:43:44.960Z,997.69
2022-08-22T02:44:44.984Z,997.77
2022-08-22T02:45:44.951Z,997.74
2022-08-22T02:46:44.938Z,997.72
2022-08-22T02:47:44.934Z,997.68
2022-08-22T02:48:44.924Z,997.69
2022-08-22T02:49:44.950Z,997.71
2022-08-22T02:50:44.910Z,997.74
2022-08-22T02:51:44.896Z,997.74
2022-08-22T02:52:44.891Z,997.75
2022-08-22T02:53:44.896Z,997.75
2022-08-22T02:54:44.891Z,997.65
2022-08-22T02:55:44.867Z,997.62
2022-08-22T02:56:44.857Z,997.62
2022-08-22T02:57:44.842Z,997.67
2022-08-22T02:58:44.843Z,997.65
2022-08-22T02:59:44.864Z,997.68
2022-08-22T03:00:44.866Z,997.61
2022-08-22T03:01:44.803Z,997.61
2022-08-22T03:02:44.802Z,997.64
2022-08-22T03:03:44.795Z,997.68
2022-08-22T03:04:44.813Z,997.67
2022-08-22T03:05:44.793Z,997.69
2022-08-22T03:07:03.755Z,997.68
2022-08-22T03:07:44.764Z,997.63
2022-08-22T03:08:51.026Z,997.63
2022-08-22T03:09:45.785Z,997.68
2022-08-22T03:10:44.743Z,997.69
2022-08-22T03:11:44.741Z,997.59
2022-08-22T03:12:44.727Z,997.66
2022-08-22T03:13:44.714Z,997.59
2022-08-22T03:14:44.743Z,997.56
2022-08-22T03:15:48.430Z,997.57
2022-08-22T03:16:44.693Z,997.58
2022-08-22T03:17:44.679Z,997.59
2022-08-22T03:18:45.361Z,997.57
2022-08-22T03:19:44.701Z,997.64
2022-08-22T03:20:44.663Z,997.63
2022-08-22T03:21:44.641Z,997.64
2022-08-22T03:22:44.644Z,997.62
2022-08-22T03:23:44.645Z,997.59
2022-08-22T03:24:44.668Z,997.60
2022-08-22T03:25:44.617Z,997.67
2022-08-22T03:26:44.623Z,997.60
2022-08-22T03:27:47.177Z,997.67
2022-08-22T03:28:59.207Z,997.65
2022-08-22T03:29:45.620Z,997.61
2022-08-22T03:30:44.573Z,997.66
2022-08-22T03:31:44.563Z,997.66
2022-08-22T03:32:44.554Z,997.61
2022-08-22T03:33:44.542Z,997.62
2022-08-22T03:34:44.545Z,997.58
2022-08-22T03:35:44.560Z,997.53
2022-08-22T03:36:44.526Z,997.63
2022-08-22T03:37:44.514Z,997.59
2022-08-22T03:38:44.514Z,997.62
2022-08-22T03:39:44.513Z,997.57
2022-08-22T03:40:44.520Z,997.57
2022-08-22T03:41:44.479Z,997.55
2022-08-22T03:42:44.471Z,997.62
2022-08-22T03:43:44.454Z,997.62
2022-08-22T03:44:44.451Z,997.61
2022-08-22T03:45:44.471Z,997.68
2022-08-22T03:46:44.447Z,997.68
2022-08-22T03:47:45.423Z,997.67
2022-08-22T03:49:03.297Z,997.67
2022-08-22T03:49:46.962Z,997.71
2022-08-22T03:50:45.431Z,997.73
2022-08-22T03:51:44.394Z,997.74
2022-08-22T03:52:44.386Z,997.71
2022-08-22T03:53:44.374Z,997.72
2022-08-22T03:54:44.368Z,997.75
2022-08-22T03:55:44.399Z,997.74
2022-08-22T03:56:44.345Z,997.83
2022-08-22T03:57:44.347Z,997.85
2022-08-22T03:58:44.332Z,997.82
2022-08-22T03:59:44.319Z,997.82
2022-08-22T04:00:44.399Z,997.78
2022-08-22T04:01:44.306Z,997.86
2022-08-22T04:02:44.453Z,997.88
2022-08-22T04:03:45.282Z,997.84
2022-08-22T04:04:44.277Z,997.82
2022-08-22T04:05:44.291Z,997.84
2022-08-22T04:06:44.256Z,997.86
2022-08-22T04:07:44.252Z,997.83
2022-08-22T04:08:44.772Z,997.82
2022-08-22T04:09:44.228Z,997.89
2022-08-22T04:10:44.265Z,997.88
2022-08-22T04:11:44.216Z,997.96
2022-08-22T04:12:44.216Z,997.89
2022-08-22T04:13:44.197Z,997.90
2022-08-22T04:14:44.187Z,997.97
2022-08-22T04:15:44.209Z,997.97
2022-08-22T04:16:44.170Z,997.98
2022-08-22T04:17:44.159Z,997.94
2022-08-22T04:18:44.154Z,998.01
2022-08-22T04:19:44.156Z,998.03
2022-08-22T04:20:44.169Z,998.07
2022-08-22T04:21:44.131Z,998.02
2022-08-22T04:22:44.121Z,997.98
2022-08-22T04:23:44.114Z,998.06
2022-08-22T04:24:44.107Z,998.07
2022-08-22T04:25:44.138Z,998.10
2022-08-22T04:26:44.104Z,998.10
2022-08-22T04:27:44.098Z,998.10
2022-08-22T04:28:44.075Z,998.09
2022-08-22T04:29:44.063Z,998.09
2022-08-22T04:30:44.095Z,998.14
2022-08-22T04:31:44.049Z,998.08
2022-08-22T04:32:44.042Z,998.14
2022-08-22T04:33:44.039Z,998.21
2022-08-22T04:34:44.023Z,998.17
2022-08-22T04:35:44.037Z,998.19
2022-08-22T04:36:44.012Z,998.14
2022-08-22T04:37:43.994Z,998.14
2022-08-22T04:38:43.988Z,998.16
2022-08-22T04:39:44.041Z,998.12
2022-08-22T04:40:43.999Z,998.15
2022-08-22T04:41:43.965Z,998.21
2022-08-22T04:42:43.957Z,998.19
2022-08-22T04:43:43.950Z,998.21
2022-08-22T04:44:43.934Z,998.25
2022-08-22T04:45:43.975Z,998.25
2022-08-22T04:46:43.926Z,998.24
2022-08-22T04:47:43.914Z,998.30
2022-08-22T04:48:43.906Z,998.25
2022-08-22T04:49:43.898Z,998.26
2022-08-22T04:50:43.919Z,998.23
2022-08-22T04:51:43.885Z,998.22
2022-08-22T04:52:43.889Z,998.28
2022-08-22T04:53:43.862Z,998.21
2022-08-22T04:54:44.549Z,998.23
2022-08-22T04:55:43.893Z,998.30
2022-08-22T04:56:43.833Z,998.29
2022-08-22T04:57:43.825Z,998.21
2022-08-22T04:58:43.838Z,998.28
2022-08-22T04:59:43.828Z,998.24
2022-08-22T05:00:43.845Z,998.22
2022-08-22T05:01:43.821Z,998.30
2022-08-22T05:02:43.789Z,998.37
2022-08-22T05:03:45.035Z,998.27
2022-08-22T05:04:44.781Z,998.30
2022-08-22T05:05:43.765Z,998.25
2022-08-22T05:06:43.769Z,998.22
2022-08-22T05:07:44.749Z,998.27
2022-08-22T05:08:43.735Z,998.17
2022-08-22T05:09:43.731Z,998.22
2022-08-22T05:10:43.723Z,998.24
2022-08-22T05:11:43.740Z,998.27
2022-08-22T05:12:43.713Z,998.28
2022-08-22T05:13:43.698Z,998.28
2022-08-22T05:14:43.687Z,998.29
2022-08-22T05:15:43.672Z,998.27
2022-08-22T05:16:43.698Z,998.24
2022-08-22T05:17:43.661Z,998.19
2022-08-22T05:18:43.651Z,998.28
2022-08-22T05:19:43.642Z,998.32
2022-08-22T05:20:43.637Z,998.31
2022-08-22T05:21:43.658Z,998.32
2022-08-22T05:22:43.620Z,998.36
2022-08-22T05:23:43.621Z,998.25
2022-08-22T05:24:43.599Z,998.28
2022-08-22T05:25:43.597Z,998.26
2022-08-22T05:26:43.610Z,998.29
2022-08-22T05:27:43.576Z,998.26
2022-08-22T05:28:43.587Z,998.25
2022-08-22T05:29:43.555Z,998.27
2022-08-22T05:30:43.560Z,998.33
2022-08-22T05:31:43.570Z,998.27
2022-08-22T05:32:43.533Z,998.26
2022-08-22T05:33:43.529Z,998.21
2022-08-22T05:34:43.514Z,998.19
2022-08-22T05:35:47.260Z,998.21
2022-08-22T05:36:45.612Z,998.16
2022-08-22T05:37:43.498Z,998.20
2022-08-22T05:38:43.495Z,998.20
2022-08-22T05:39:43.536Z,998.21
2022-08-22T05:40:43.460Z,998.23
2022-08-22T05:41:43.487Z,998.34
2022-08-22T05:42:43.448Z,998.27
2022-08-22T05:43:43.438Z,998.25
2022-08-22T05:44:43.431Z,998.26
2022-08-22T05:45:43.423Z,998.28
2022-08-22T05:46:43.450Z,998.25
2022-08-22T05:47:43.406Z,998.27
2022-08-22T05:48:43.649Z,998.34
2022-08-22T05:49:43.388Z,998.32
2022-08-22T05:50:43.384Z,998.30
2022-08-22T05:51:43.400Z,998.38
2022-08-22T05:52:43.358Z,998.35
2022-08-22T05:53:43.359Z,998.30
2022-08-22T05:54:43.346Z,998.34
2022-08-22T05:55:43.395Z,998.25
2022-08-22T05:56:43.358Z,998.29
2022-08-22T05:57:43.317Z,998.28
2022-08-22T05:58:43.323Z,998.22
2022-08-22T05:59:43.309Z,998.24
2022-08-22T06:00:43.301Z,998.24
2022-08-22T06:01:43.364Z,998.24
2022-08-22T06:02:43.285Z,998.26
2022-08-22T06:03:43.258Z,998.22
2022-08-22T06:04:44.264Z,998.27
2022-08-22T06:05:43.265Z,998.20
2022-08-22T06:06:43.273Z,998.24
2022-08-22T06:07:43.259Z,998.25
2022-08-22T06:08:43.227Z,998.18
2022-08-22T06:09:43.227Z,998.19
2022-08-22T06:10:43.218Z,998.25
2022-08-22T06:11:44.845Z,998.28
2022-08-22T06:12:44.204Z,998.23
2022-08-22T06:13:43.210Z,998.18
2022-08-22T06:14:43.176Z,998.21
2022-08-22T06:15:43.174Z,998.21
2022-08-22T06:16:47.513Z,998.16
2022-08-22T06:17:44.156Z,998.16
2022-08-22T06:18:43.148Z,998.21
2022-08-22T06:19:43.152Z,998.20
2022-08-22T06:20:43.130Z,998.17
2022-08-22T06:21:43.157Z,998.21
2022-08-22T06:22:43.112Z,998.19
2022-08-22T06:23:43.106Z,998.19
2022-08-22T06:24:43.099Z,998.19
2022-08-22T06:25:43.086Z,998.13
2022-08-22T06:26:45.234Z,998.21
2022-08-22T06:27:44.099Z,998.22
2022-08-22T06:28:55.242Z,998.19
2022-08-22T06:29:44.055Z,998.18
2022-08-22T06:30:43.058Z,998.19
2022-08-22T06:31:43.067Z,998.16
2022-08-22T06:32:59.148Z,998.21
2022-08-22T06:33:45.872Z,998.16
2022-08-22T06:34:44.016Z,998.19
2022-08-22T06:35:43.010Z,998.25
2022-08-22T06:37:01.485Z,998.20
2022-08-22T06:37:46.915Z,998.14
2022-08-22T06:38:42.975Z,998.16
2022-08-22T06:39:43.000Z,998.09
2022-08-22T06:40:47.433Z,998.15
2022-08-22T06:41:42.988Z,998.14
2022-08-22T06:42:42.995Z,998.14
2022-08-22T06:43:42.956Z,998.11
2022-08-22T06:44:42.950Z,998.10
2022-08-22T06:45:42.926Z,998.13
2022-08-22T06:46:42.947Z,998.10
2022-08-22T06:47:43.475Z,998.01
2022-08-22T06:48:43.899Z,998.01
2022-08-22T06:49:42.895Z,998.15
2022-08-22T06:50:42.890Z,998.00
2022-08-22T06:51:42.910Z,998.10
2022-08-22T06:52:42.866Z,998.11
2022-08-22T06:53:47.921Z,998.04
2022-08-22T06:54:43.849Z,998.14
2022-08-22T06:55:42.847Z,998.08
2022-08-22T06:56:42.878Z,998.06
2022-08-22T06:57:42.837Z,998.08
2022-08-22T06:58:42.829Z,998.08
2022-08-22T06:59:42.821Z,998.00
2022-08-22T07:00:42.819Z,998.06
2022-08-22T07:01:42.889Z,998.06
2022-08-22T07:02:42.805Z,998.04
2022-08-22T07:03:42.785Z,998.08
2022-08-22T07:04:42.784Z,998.05
2022-08-22T07:05:42.767Z,998.08
2022-08-22T07:06:42.791Z,998.07
2022-08-22T07:07:42.765Z,998.10
2022-08-22T07:08:42.743Z,998.09
2022-08-22T07:09:42.743Z,998.14
2022-08-22T07:10:42.726Z,998.09
2022-08-22T07:11:42.754Z,998.11
2022-08-22T07:12:42.716Z,998.14
2022-08-22T07:13:42.704Z,998.17
2022-08-22T07:14:42.701Z,998.21
2022-08-22T07:15:42.694Z,998.24
2022-08-22T07:16:42.745Z,998.23
2022-08-22T07:17:42.666Z,998.18
2022-08-22T07:18:42.670Z,998.12
2022-08-22T07:19:42.670Z,998.10
2022-08-22T07:20:42.666Z,998.14
2022-08-22T07:21:42.679Z,998.20
2022-08-22T07:22:42.634Z,998.12
2022-08-22T07:23:42.622Z,998.11
2022-08-22T07:24:42.612Z,998.13
2022-08-22T07:25:42.610Z,998.12
2022-08-22T07:26:42.599Z,998.09
2022-08-22T07:27:42.628Z,998.12
2022-08-22T07:28:51.528Z,998.10
2022-08-22T07:29:43.577Z,998.08
2022-08-22T07:30:42.578Z,998.02
2022-08-22T07:31:42.596Z,997.97
2022-08-22T07:32:42.569Z,997.97
2022-08-22T07:33:42.554Z,997.96
2022-08-22T07:34:42.545Z,998.00
2022-08-22T07:35:42.553Z,998.01
2022-08-22T07:36:43.557Z,997.96
2022-08-22T07:37:42.514Z,997.93
2022-08-22T07:38:42.506Z,997.90
2022-08-22T07:39:42.536Z,997.91
2022-08-22T07:40:42.487Z,997.88
2022-08-22T07:41:42.502Z,997.88
2022-08-22T07:42:42.503Z,997.90
2022-08-22T07:43:42.469Z,997.92
2022-08-22T07:44:42.463Z,997.89
2022-08-22T07:45:42.447Z,997.89
2022-08-22T07:46:42.457Z,997.88
2022-08-22T07:47:42.479Z,997.89
2022-08-22T07:49:05.934Z,997.88
2022-08-22T07:49:49.792Z,997.82
2022-08-22T07:50:43.413Z,997.88
2022-08-22T07:51:42.399Z,997.86
2022-08-22T07:52:42.428Z,997.80
2022-08-22T07:53:42.396Z,997.86
2022-08-22T07:54:42.378Z,997.82
2022-08-22T07:55:49.728Z,997.87
2022-08-22T07:56:43.368Z,997.73
2022-08-22T07:57:42.386Z,997.79
2022-08-22T07:58:42.352Z,997.77
2022-08-22T07:59:42.339Z,997.83
2022-08-22T08:00:42.331Z,997.82
2022-08-22T08:01:42.369Z,997.72
2022-08-22T08:02:42.348Z,997.76
2022-08-22T08:03:42.423Z,997.79
2022-08-22T08:04:42.307Z,997.62
2022-08-22T08:05:42.299Z,997.69
2022-08-22T08:06:42.295Z,997.76
2022-08-22T08:07:42.324Z,997.71
2022-08-22T08:08:42.283Z,997.67
2022-08-22T08:09:42.271Z,997.66
2022-08-22T08:10:42.266Z,997.67
2022-08-22T08:11:42.257Z,997.68
2022-08-22T08:12:42.292Z,997.67
2022-08-22T08:13:42.243Z,997.64
2022-08-22T08:14:42.234Z,997.58
2022-08-22T08:15:42.230Z,997.60
2022-08-22T08:16:42.222Z,997.54
2022-08-22T08:17:42.235Z,997.64
2022-08-22T08:18:42.192Z,997.57
2022-08-22T08:19:42.194Z,997.54
2022-08-22T08:20:42.185Z,997.57
2022-08-22T08:21:42.179Z,997.58
2022-08-22T08:22:42.209Z,997.55
2022-08-22T08:23:42.229Z,997.53
2022-08-22T08:24:42.491Z,997.56
2022-08-22T08:25:42.151Z,997.54
2022-08-22T08:26:42.145Z,997.53
2022-08-22T08:27:42.176Z,997.59
2022-08-22T08:28:42.134Z,997.67
2022-08-22T08:29:42.123Z,997.69
2022-08-22T08:30:42.115Z,997.60
2022-08-22T08:31:43.176Z,997.61
2022-08-22T08:32:42.128Z,997.60
2022-08-22T08:33:42.111Z,997.58
2022-08-22T08:34:42.083Z,997.50
2022-08-22T08:35:51.949Z,997.50
2022-08-22T08:36:43.088Z,997.49
2022-08-22T08:37:42.101Z,997.48
2022-08-22T08:38:42.072Z,997.45
2022-08-22T08:39:42.083Z,997.50
2022-08-22T08:40:42.042Z,997.45
2022-08-22T08:41:42.038Z,997.40
2022-08-22T08:42:42.057Z,997.37
2022-08-22T08:43:42.041Z,997.36
2022-08-22T08:44:42.016Z,997.36
2022-08-22T08:45:42.007Z,997.36
2022-08-22T08:46:41.997Z,997.31
2022-08-22T08:47:43.029Z,997.32
2022-08-22T08:48:42.025Z,997.34
2022-08-22T08:50:43.301Z,997.33
2022-08-22T08:51:41.965Z,997.34
2022-08-22T08:52:41.994Z,997.37
2022-08-22T08:53:43.356Z,997.33
2022-08-22T08:54:41.946Z,997.34
2022-08-22T08:55:41.940Z,997.29
2022-08-22T08:56:47.118Z,997.32
2022-08-22T08:57:42.951Z,997.31
2022-08-22T08:58:41.916Z,997.31
2022-08-22T08:59:44.483Z,997.22
2022-08-22T09:00:41.905Z,997.22
2022-08-22T09:01:41.981Z,997.23
2022-08-22T09:02:42.479Z,997.28
2022-08-22T09:03:41.957Z,997.28
2022-08-22T09:04:41.872Z,997.26
2022-08-22T09:05:41.887Z,997.21
2022-08-22T09:06:42.411Z,997.17
2022-08-22T09:07:41.896Z,997.21
2022-08-22T09:08:41.847Z,997.29
2022-08-22T09:09:41.840Z,997.19
2022-08-22T09:10:41.840Z,997.15
2022-08-22T09:11:41.840Z,997.19
2022-08-22T09:12:56.041Z,997.21
2022-08-22T09:13:42.821Z,997.22
2022-08-22T09:14:41.809Z,997.14
2022-08-22T09:15:41.800Z,997.11
2022-08-22T09:16:45.071Z,997.11
2022-08-22T09:17:42.827Z,997.12
2022-08-22T09:18:41.785Z,997.12
2022-08-22T09:19:41.773Z,997.13
2022-08-22T09:20:41.784Z,997.10
2022-08-22T09:21:41.761Z,997.17
2022-08-22T09:22:50.215Z,997.19
2022-08-22T09:23:43.246Z,997.10
2022-08-22T09:24:41.743Z,997.16
2022-08-22T09:25:41.742Z,997.15
2022-08-22T09:26:41.734Z,997.10
2022-08-22T09:27:41.761Z,997.14
2022-08-22T09:28:41.722Z,997.08
2022-08-22T09:29:55.191Z,997.09
2022-08-22T09:30:42.707Z,997.08
2022-08-22T09:31:48.087Z,997.10
2022-08-22T09:32:42.717Z,997.06
2022-08-22T09:33:41.683Z,997.00
2022-08-22T09:34:41.687Z,997.02
2022-08-22T09:35:41.680Z,997.06
2022-08-22T09:36:41.680Z,997.03
2022-08-22T09:38:09.654Z,997.07
2022-08-22T09:38:47.789Z,997.08
2022-08-22T09:39:42.683Z,997.04
2022-08-22T09:40:16.433Z,997.35
2022-08-22T09:40:41.669Z,996.99
2022-08-22T09:41:41.644Z,996.94
2022-08-22T09:42:45.015Z,996.95
2022-08-22T09:43:45.023Z,996.96
2022-08-22T09:44:42.620Z,996.92
2022-08-22T09:45:42.929Z,996.94
2022-08-22T09:46:41.610Z,996.94
2022-08-22T09:47:41.630Z,996.88
2022-08-22T09:48:42.499Z,996.79
2022-08-22T09:49:41.595Z,996.81
2022-08-22T09:50:41.583Z,996.74
2022-08-22T09:51:41.589Z,996.82
2022-08-22T09:52:41.610Z,996.73
2022-08-22T09:53:41.568Z,996.75
2022-08-22T09:54:41.559Z,996.76
2022-08-22T09:55:41.560Z,996.75
2022-08-22T09:56:41.554Z,996.70
2022-08-22T09:57:41.590Z,996.71
2022-08-22T09:58:41.885Z,996.71
2022-08-22T09:59:41.553Z,996.64
2022-08-22T10:00:41.560Z,996.68
2022-08-22T10:01:42.391Z,996.67
2022-08-22T10:02:43.320Z,996.66
2022-08-22T10:03:41.511Z,996.62
2022-08-22T10:04:42.034Z,996.60
2022-08-22T10:05:44.257Z,996.61
2022-08-22T10:06:42.496Z,996.61
2022-08-22T10:07:41.514Z,996.59
2022-08-22T10:08:41.485Z,996.56
2022-08-22T10:09:41.478Z,996.65
2022-08-22T10:10:41.464Z,996.58
2022-08-22T10:11:42.218Z,996.62
2022-08-22T10:12:41.477Z,996.57
2022-08-22T10:13:41.449Z,996.55
2022-08-22T10:14:41.441Z,996.53
2022-08-22T10:15:42.430Z,996.51
2022-08-22T10:16:41.426Z,996.53
2022-08-22T10:17:41.473Z,996.42
2022-08-22T10:18:52.522Z,996.46
2022-08-22T10:19:42.404Z,996.44
2022-08-22T10:20:41.402Z,996.45
2022-08-22T10:21:41.399Z,996.50
2022-08-22T10:22:41.419Z,996.48
2022-08-22T10:23:41.382Z,996.41
2022-08-22T10:24:43.794Z,996.47
2022-08-22T10:25:42.255Z,996.46
2022-08-22T10:26:41.367Z,996.42
2022-08-22T10:27:41.389Z,996.42
2022-08-22T10:28:41.353Z,996.39
2022-08-22T10:29:41.355Z,996.37
2022-08-22T10:30:41.356Z,996.40
2022-08-22T10:31:45.088Z,996.40
2022-08-22T10:32:43.356Z,996.34
2022-08-22T10:33:41.322Z,996.32
2022-08-22T10:34:41.326Z,996.35
2022-08-22T10:35:41.311Z,996.30
2022-08-22T10:36:41.300Z,996.32
2022-08-22T10:37:45.991Z,996.38
2022-08-22T10:38:46.319Z,996.23
2022-08-22T10:39:41.350Z,996.30
2022-08-22T10:40:41.285Z,996.25
2022-08-22T10:41:41.271Z,996.20
2022-08-22T10:42:41.739Z,996.20
2022-08-22T10:43:41.263Z,996.18
2022-08-22T10:44:41.257Z,996.06
2022-08-22T10:45:41.250Z,996.13
2022-08-22T10:46:42.278Z,996.06
2022-08-22T10:47:42.264Z,996.10
2022-08-22T10:48:41.225Z,996.12
2022-08-22T10:49:41.232Z,996.04
2022-08-22T10:50:41.210Z,996.09
2022-08-22T10:51:41.210Z,996.09
2022-08-22T10:52:41.227Z,996.03
2022-08-22T10:53:41.190Z,996.11
2022-08-22T10:54:41.193Z,996.10
2022-08-22T10:55:41.175Z,996.11
2022-08-22T10:56:41.170Z,996.05
2022-08-22T10:57:41.199Z,996.04
2022-08-22T10:58:41.174Z,996.03
2022-08-22T10:59:41.155Z,995.99
2022-08-22T11:00:46.208Z,996.06
2022-08-22T11:01:42.412Z,996.02
2022-08-22T11:02:42.326Z,996.03
2022-08-22T11:03:41.125Z,996.00
2022-08-22T11:04:41.134Z,995.99
2022-08-22T11:05:41.115Z,996.08
2022-08-22T11:06:41.103Z,996.05
2022-08-22T11:07:41.395Z,996.03
2022-08-22T11:08:41.103Z,996.05
2022-08-22T11:09:41.090Z,995.96
2022-08-22T11:10:41.077Z,995.97
2022-08-22T11:11:41.074Z,995.98
2022-08-22T11:12:41.668Z,995.98
2022-08-22T11:13:43.365Z,995.98
2022-08-22T11:14:41.044Z,996.00
2022-08-22T11:15:41.048Z,996.08
2022-08-22T11:16:41.777Z,996.03
2022-08-22T11:17:44.774Z,996.05
2022-08-22T11:18:43.016Z,996.01
2022-08-22T11:19:42.018Z,995.97
2022-08-22T11:20:41.015Z,996.00
2022-08-22T11:21:41.005Z,996.00
2022-08-22T11:22:41.037Z,996.00
2022-08-22T11:23:40.996Z,995.91
2022-08-22T11:24:55.946Z,995.93
2022-08-22T11:25:41.985Z,995.93
2022-08-22T11:26:47.741Z,995.93
2022-08-22T11:27:43.002Z,995.95
2022-08-22T11:28:40.972Z,995.92
2022-08-22T11:29:41.210Z,995.94
2022-08-22T11:30:45.207Z,995.92
2022-08-22T11:31:43.479Z,995.89
2022-08-22T11:32:41.967Z,995.85
2022-08-22T11:33:46.909Z,995.84
2022-08-22T11:34:41.940Z,995.97
2022-08-22T11:35:40.926Z,995.90
2022-08-22T11:36:40.917Z,995.87
2022-08-22T11:37:42.899Z,995.86
2022-08-22T11:38:40.907Z,995.83
2022-08-22T11:39:40.962Z,995.82
2022-08-22T11:40:41.890Z,995.76
2022-08-22T11:41:40.892Z,995.69
2022-08-22T11:42:47.426Z,995.74
2022-08-22T11:43:41.865Z,995.80
2022-08-22T11:44:50.513Z,995.77
2022-08-22T11:45:41.851Z,995.76
2022-08-22T11:46:40.859Z,995.76
2022-08-22T11:47:40.870Z,995.72
2022-08-22T11:48:40.849Z,995.72
2022-08-22T11:49:41.838Z,995.73
2022-08-22T11:50:42.217Z,995.72
2022-08-22T11:51:40.856Z,995.70
2022-08-22T11:52:40.823Z,995.73
2022-08-22T11:53:40.830Z,995.70
2022-08-22T11:54:42.247Z,995.66
2022-08-22T11:55:40.798Z,995.63
2022-08-22T11:56:41.615Z,995.73
2022-08-22T11:57:44.208Z,995.67
2022-08-22T11:58:40.774Z,995.63
2022-08-22T11:59:40.771Z,995.71
2022-08-22T12:00:40.769Z,995.70
2022-08-22T12:01:40.843Z,995.65
2022-08-22T12:02:40.847Z,995.62
2022-08-22T12:03:40.741Z,995.65
2022-08-22T12:04:43.994Z,995.61
2022-08-22T12:05:40.739Z,995.61
2022-08-22T12:06:40.754Z,995.61
2022-08-22T12:07:40.717Z,995.58
2022-08-22T12:08:40.720Z,995.59
2022-08-22T12:09:40.695Z,995.61
2022-08-22T12:10:40.689Z,995.61
2022-08-22T12:11:40.692Z,995.57
2022-08-22T12:12:42.272Z,995.50
2022-08-22T12:13:40.677Z,995.61
2022-08-22T12:14:40.671Z,995.56
2022-08-22T12:15:40.659Z,995.53
2022-08-22T12:16:40.656Z,995.52
2022-08-22T12:17:55.364Z,995.56
2022-08-22T12:18:41.643Z,995.52
2022-08-22T12:20:05.779Z,995.53